Time;durP1;ratioP1;P1;durP2;ratioP2;P2;SDS_P1;SDS_P2;PMS_P1;PMS_P2;Temp;Humidity;BMP_temperature;BMP_pressure;BME280_temperature;BME280_humidity;BME280_pressure;Samples;Min_cycle;Max_cycle;Signal;HPM_P1;HPM_P2
2023/09/22 00:00:36;;;;;;;22.48;5.10;;;;;;;;;;4947570;28;20061;-74
2023/09/22 00:03:05;;;;;;;18.08;4.10;;;;;;;;;;4958439;28;20061;-74
2023/09/22 00:05:31;;;;;;;18.90;4.53;;;;;;;;;;4950926;28;20084;-74
2023/09/22 00:07:57;;;;;;;18.27;4.32;;;;;;;;;;4958023;28;20137;-74
2023/09/22 00:10:23;;;;;;;16.77;4.15;;;;;;;;;;4955252;28;20038;-73
2023/09/22 00:12:49;;;;;;;17.70;4.30;;;;;;;;;;4956161;28;20902;-74
2023/09/22 00:15:16;;;;;;;17.15;4.22;;;;;;;;;;4959353;28;20065;-74
2023/09/22 00:17:42;;;;;;;14.60;4.07;;;;;;;;;;4954505;28;20394;-74
2023/09/22 00:20:09;;;;;;;14.55;4.00;;;;;;;;;;4957872;28;20050;-74
2023/09/22 00:22:35;;;;;;;19.08;4.03;;;;;;;;;;4954341;28;20060;-74
2023/09/22 00:25:02;;;;;;;16.52;3.55;;;;;;;;;;4958853;28;20037;-74
2023/09/22 00:27:28;;;;;;;17.20;4.15;;;;;;;;;;4954352;28;20134;-74
2023/09/22 00:29:54;;;;;;;11.85;3.38;;;;;;;;;;4955612;28;20065;-74
2023/09/22 00:32:21;;;;;;;13.93;3.22;;;;;;;;;;4953736;28;20384;-74
2023/09/22 00:34:47;;;;;;;13.60;3.42;;;;;;;;;;4972333;28;20125;-74
2023/09/22 00:37:14;;;;;;;11.00;3.05;;;;;;;;;;4951558;28;20088;-73
2023/09/22 00:39:40;;;;;;;10.18;2.42;;;;;;;;;;4956558;28;20425;-74
2023/09/22 00:42:09;;;;;;;10.07;2.50;;;;;;;;;;4956829;28;20559;-73
2023/09/22 00:44:36;;;;;;;8.90;1.80;;;;;;;;;;4952054;28;20042;-73
2023/09/22 00:47:02;;;;;;;7.63;2.08;;;;;;;;;;4951458;28;20030;-74
2023/09/22 00:49:28;;;;;;;8.93;1.80;;;;;;;;;;4953131;28;20038;-74
2023/09/22 00:51:55;;;;;;;7.70;1.90;;;;;;;;;;4953811;28;20030;-74
2023/09/22 00:54:21;;;;;;;7.47;1.98;;;;;;;;;;4954422;28;20043;-74
2023/09/22 00:56:48;;;;;;;6.30;1.70;;;;;;;;;;4956234;28;20110;-74
2023/09/22 00:59:15;;;;;;;9.10;2.28;;;;;;;;;;4953446;28;20049;-74
2023/09/22 01:01:45;;;;;;;8.13;1.70;;;;;;;;;;4949381;28;20033;-74
2023/09/22 01:04:14;;;;;;;7.82;1.80;;;;;;;;;;4959288;28;20035;-74
2023/09/22 01:06:40;;;;;;;6.53;1.88;;;;;;;;;;4953956;28;20026;-73
2023/09/22 01:09:06;;;;;;;8.20;1.92;;;;;;;;;;4954470;28;20591;-73
2023/09/22 01:11:34;;;;;;;10.18;2.10;;;;;;;;;;4949695;28;20417;-73
2023/09/22 01:14:00;;;;;;;9.95;2.20;;;;;;;;;;4965853;28;20409;-73
2023/09/22 01:16:27;;;;;;;7.10;1.95;;;;;;;;;;4949444;28;20061;-73
2023/09/22 01:18:53;;;;;;;9.10;2.10;;;;;;;;;;4954212;28;20398;-73
2023/09/22 01:21:20;;;;;;;8.10;2.15;;;;;;;;;;4955675;28;20161;-73
2023/09/22 01:23:46;;;;;;;7.97;1.90;;;;;;;;;;4952999;28;20034;-74
2023/09/22 01:26:12;;;;;;;9.10;1.95;;;;;;;;;;4956162;28;20436;-73
2023/09/22 01:28:38;;;;;;;9.73;1.95;;;;;;;;;;4955102;28;20084;-73
2023/09/22 01:31:04;;;;;;;9.30;1.98;;;;;;;;;;4954273;28;20030;-73
2023/09/22 01:33:30;;;;;;;8.63;1.90;;;;;;;;;;4953045;28;20504;-73
2023/09/22 01:35:57;;;;;;;11.65;1.95;;;;;;;;;;4959265;28;20053;-74
2023/09/22 01:38:26;;;;;;;5.57;1.70;;;;;;;;;;4950646;28;20282;-75
2023/09/22 01:40:53;;;;;;;8.05;1.80;;;;;;;;;;4952874;28;20018;-73
2023/09/22 01:43:19;;;;;;;9.35;2.17;;;;;;;;;;4957781;28;20034;-73
2023/09/22 01:45:45;;;;;;;8.27;1.88;;;;;;;;;;4948736;28;20477;-73
2023/09/22 01:48:12;;;;;;;6.53;1.90;;;;;;;;;;4955771;28;20524;-73
2023/09/22 01:50:40;;;;;;;7.18;1.92;;;;;;;;;;4952081;28;20124;-74
2023/09/22 01:53:08;;;;;;;6.70;1.98;;;;;;;;;;4956459;28;20376;-74
2023/09/22 01:55:35;;;;;;;8.13;2.13;;;;;;;;;;4951770;28;20030;-73
2023/09/22 01:58:01;;;;;;;11.18;2.20;;;;;;;;;;4952498;28;20060;-74
2023/09/22 02:00:27;;;;;;;9.43;2.20;;;;;;;;;;4961515;28;20031;-73
2023/09/22 02:02:55;;;;;;;9.23;2.10;;;;;;;;;;4956173;28;20031;-73
2023/09/22 02:05:21;;;;;;;8.77;2.25;;;;;;;;;;4955931;28;20030;-73
2023/09/22 02:07:47;;;;;;;9.55;2.05;;;;;;;;;;4968724;28;20023;-75
2023/09/22 02:10:14;;;;;;;7.38;1.92;;;;;;;;;;4957126;28;20026;-74
2023/09/22 02:12:41;;;;;;;6.93;2.13;;;;;;;;;;4951743;28;20058;-74
2023/09/22 02:15:11;;;;;;;6.90;1.83;;;;;;;;;;4956127;28;20037;-74
2023/09/22 02:17:40;;;;;;;6.55;2.00;;;;;;;;;;4951718;28;20045;-74
2023/09/22 02:20:22;;;;;;;9.18;1.95;;;;;;;;;;4955937;28;20346;-74
2023/09/22 02:22:54;;;;;;;6.70;1.50;;;;;;;;;;4952883;28;20037;-74
2023/09/22 02:25:20;;;;;;;8.63;2.00;;;;;;;;;;4954408;28;20073;-74
2023/09/22 02:27:52;;;;;;;7.40;2.15;;;;;;;;;;4951000;28;20035;-74
2023/09/22 02:30:18;;;;;;;7.68;1.98;;;;;;;;;;4953753;28;20437;-74
2023/09/22 02:32:48;;;;;;;7.95;2.40;;;;;;;;;;4953460;28;20034;-74
2023/09/22 02:35:15;;;;;;;6.80;1.85;;;;;;;;;;4954370;28;20114;-74
2023/09/22 02:37:41;;;;;;;7.60;1.80;;;;;;;;;;4951661;28;22082;-74
2023/09/22 02:40:08;;;;;;;6.25;1.67;;;;;;;;;;4948905;28;20254;-74
2023/09/22 02:42:35;;;;;;;8.77;1.92;;;;;;;;;;4951427;28;20027;-74
2023/09/22 02:45:01;;;;;;;6.65;1.83;;;;;;;;;;4956335;28;20117;-74
2023/09/22 02:47:27;;;;;;;6.60;1.85;;;;;;;;;;4952003;28;20451;-74
2023/09/22 02:49:55;;;;;;;7.20;1.65;;;;;;;;;;4954885;28;20112;-74
2023/09/22 02:52:21;;;;;;;6.82;1.90;;;;;;;;;;4952298;28;20030;-74
2023/09/22 02:54:47;;;;;;;5.82;1.55;;;;;;;;;;4948850;28;20384;-75
2023/09/22 02:57:13;;;;;;;13.15;2.30;;;;;;;;;;4948903;28;20486;-73
2023/09/22 02:59:40;;;;;;;4.68;1.30;;;;;;;;;;4955048;28;20030;-73
2023/09/22 03:02:06;;;;;;;10.50;2.45;;;;;;;;;;4952063;28;20386;-76
2023/09/22 03:04:34;;;;;;;8.23;2.10;;;;;;;;;;4952417;28;21031;-75
2023/09/22 03:07:00;;;;;;;7.40;2.00;;;;;;;;;;4955117;28;20369;-73
2023/09/22 03:09:26;;;;;;;7.10;1.70;;;;;;;;;;4952127;28;20026;-73
2023/09/22 03:11:52;;;;;;;7.43;1.80;;;;;;;;;;4953203;28;20046;-73
2023/09/22 03:14:19;;;;;;;7.60;1.77;;;;;;;;;;4960016;28;20674;-74
2023/09/22 03:16:45;;;;;;;6.30;1.70;;;;;;;;;;4951544;28;20509;-73
2023/09/22 03:19:12;;;;;;;7.13;2.25;;;;;;;;;;4957194;28;20043;-73
2023/09/22 03:21:38;;;;;;;9.38;2.30;;;;;;;;;;4956381;28;20641;-73
2023/09/22 03:24:04;;;;;;;9.43;2.30;;;;;;;;;;4958479;28;20684;-73
2023/09/22 03:26:31;;;;;;;8.18;2.35;;;;;;;;;;4957401;28;20724;-74
2023/09/22 03:28:57;;;;;;;11.80;2.63;;;;;;;;;;4958728;28;20285;-73
2023/09/22 03:31:23;;;;;;;7.18;2.13;;;;;;;;;;4953364;28;20054;-73
2023/09/22 03:33:49;;;;;;;9.45;2.42;;;;;;;;;;4957652;28;20046;-73
2023/09/22 03:36:15;;;;;;;11.45;2.30;;;;;;;;;;4958940;28;20562;-73
2023/09/22 03:38:47;;;;;;;9.20;2.30;;;;;;;;;;4955215;28;20480;-73
2023/09/22 03:41:15;;;;;;;9.13;2.55;;;;;;;;;;4958505;28;20038;-73
2023/09/22 03:43:43;;;;;;;8.88;2.25;;;;;;;;;;4958350;28;20734;-73
2023/09/22 03:46:10;;;;;;;13.90;2.80;;;;;;;;;;4960961;28;20457;-73
2023/09/22 03:48:37;;;;;;;7.60;1.80;;;;;;;;;;4955837;28;20030;-73
2023/09/22 03:51:03;;;;;;;9.90;2.47;;;;;;;;;;4959660;28;20097;-73
2023/09/22 03:53:29;;;;;;;8.63;1.92;;;;;;;;;;4954727;28;20030;-73
2023/09/22 03:55:57;;;;;;;7.50;2.00;;;;;;;;;;4958297;28;20126;-73
2023/09/22 03:58:23;;;;;;;6.70;1.80;;;;;;;;;;4954556;28;20076;-73
2023/09/22 04:00:52;;;;;;;9.40;2.40;;;;;;;;;;4958366;28;20064;-73
2023/09/22 04:03:18;;;;;;;6.82;2.00;;;;;;;;;;4959268;28;20707;-73
2023/09/22 04:05:44;;;;;;;8.20;1.90;;;;;;;;;;4953081;28;20058;-74
2023/09/22 04:08:11;;;;;;;8.63;2.30;;;;;;;;;;4955408;28;20108;-73
2023/09/22 04:10:37;;;;;;;9.68;2.30;;;;;;;;;;4954360;28;20560;-73
2023/09/22 04:13:04;;;;;;;10.73;2.58;;;;;;;;;;4958509;28;20199;-76
2023/09/22 04:15:30;;;;;;;13.18;2.85;;;;;;;;;;4958235;28;20030;-74
2023/09/22 04:17:57;;;;;;;9.90;2.40;;;;;;;;;;4956630;28;20082;-73
2023/09/22 04:20:29;;;;;;;10.95;2.58;;;;;;;;;;4954892;28;20038;-73
2023/09/22 04:22:58;;;;;;;9.13;2.20;;;;;;;;;;4957284;28;20380;-74
2023/09/22 04:25:34;;;;;;;10.95;2.80;;;;;;;;;;4955350;28;20034;-75
2023/09/22 04:28:11;;;;;;;9.40;2.25;;;;;;;;;;4954517;28;20038;-73
2023/09/22 04:30:39;;;;;;;9.38;2.50;;;;;;;;;;4956184;28;20481;-74
2023/09/22 04:33:06;;;;;;;8.05;2.38;;;;;;;;;;4957332;28;20029;-73
2023/09/22 04:35:32;;;;;;;10.93;2.35;;;;;;;;;;4955180;28;20030;-73
2023/09/22 04:38:04;;;;;;;9.52;2.50;;;;;;;;;;4956919;28;20527;-73
2023/09/22 04:40:36;;;;;;;8.75;2.47;;;;;;;;;;4956880;28;20117;-73
2023/09/22 04:43:03;;;;;;;9.20;2.80;;;;;;;;;;4959422;28;20036;-73
2023/09/22 04:45:29;;;;;;;9.40;2.22;;;;;;;;;;4971893;28;20117;-73
2023/09/22 04:47:55;;;;;;;8.35;2.13;;;;;;;;;;4960701;28;20030;-73
2023/09/22 04:50:22;;;;;;;9.93;2.00;;;;;;;;;;4962280;28;20739;-72
2023/09/22 04:52:49;;;;;;;8.50;2.40;;;;;;;;;;4953430;28;20145;-73
2023/09/22 04:55:16;;;;;;;8.43;2.35;;;;;;;;;;4961450;28;20043;-73
2023/09/22 04:57:43;;;;;;;10.25;2.60;;;;;;;;;;4956234;28;20148;-73
2023/09/22 05:00:15;;;;;;;8.13;2.08;;;;;;;;;;4958804;28;20076;-73
2023/09/22 05:02:41;;;;;;;7.35;2.20;;;;;;;;;;4958767;28;20902;-73
2023/09/22 05:05:08;;;;;;;10.48;2.20;;;;;;;;;;4962245;28;20053;-73
2023/09/22 05:07:35;;;;;;;8.55;2.45;;;;;;;;;;4958852;28;20094;-73
2023/09/22 05:10:01;;;;;;;6.57;1.90;;;;;;;;;;4959618;28;20066;-73
2023/09/22 05:12:27;;;;;;;5.95;2.03;;;;;;;;;;4961069;28;20053;-73
2023/09/22 05:14:55;;;;;;;5.53;1.88;;;;;;;;;;4960179;28;20027;-73
2023/09/22 05:17:22;;;;;;;8.27;2.10;;;;;;;;;;4962811;28;20334;-73
2023/09/22 05:19:48;;;;;;;7.10;1.80;;;;;;;;;;4958310;28;20480;-73
2023/09/22 05:22:14;;;;;;;10.23;2.33;;;;;;;;;;4961197;28;20167;-73
2023/09/22 05:24:40;;;;;;;7.78;1.98;;;;;;;;;;4959865;28;20429;-73
2023/09/22 05:27:07;;;;;;;8.98;2.28;;;;;;;;;;4959643;28;20693;-73
2023/09/22 05:29:33;;;;;;;5.60;2.00;;;;;;;;;;4959478;28;20045;-72
2023/09/22 05:31:59;;;;;;;6.80;1.85;;;;;;;;;;4956923;28;20520;-74
2023/09/22 05:34:25;;;;;;;7.93;1.98;;;;;;;;;;4958116;28;20121;-73
2023/09/22 05:36:51;;;;;;;8.57;2.67;;;;;;;;;;4959263;28;20023;-75
2023/09/22 05:39:18;;;;;;;6.80;2.45;;;;;;;;;;4959724;28;20033;-73
2023/09/22 05:41:47;;;;;;;8.15;2.58;;;;;;;;;;4953799;28;20033;-73
2023/09/22 05:44:16;;;;;;;10.00;2.50;;;;;;;;;;4960084;28;20153;-73
2023/09/22 05:46:42;;;;;;;9.95;2.60;;;;;;;;;;4957919;28;21225;-73
2023/09/22 05:49:14;;;;;;;10.75;3.42;;;;;;;;;;4962233;28;20508;-73
2023/09/22 05:51:40;;;;;;;9.60;3.38;;;;;;;;;;4955329;28;20033;-73
2023/09/22 05:54:06;;;;;;;11.52;2.65;;;;;;;;;;4960515;28;20559;-73
2023/09/22 05:56:33;;;;;;;9.30;2.45;;;;;;;;;;4956884;28;20070;-73
2023/09/22 05:58:59;;;;;;;10.50;2.58;;;;;;;;;;4958972;28;20760;-73
2023/09/22 06:01:26;;;;;;;9.00;2.40;;;;;;;;;;4952869;28;20022;-73
2023/09/22 06:03:53;;;;;;;8.23;2.30;;;;;;;;;;4958805;28;20650;-74
2023/09/22 06:06:19;;;;;;;7.55;2.08;;;;;;;;;;4953747;28;20141;-73
2023/09/22 06:08:47;;;;;;;8.60;2.45;;;;;;;;;;4961591;28;20052;-73
2023/09/22 06:11:13;;;;;;;11.05;2.63;;;;;;;;;;4960721;28;20572;-73
2023/09/22 06:13:40;;;;;;;7.72;2.50;;;;;;;;;;4959459;28;20064;-75
2023/09/22 06:16:06;;;;;;;6.55;2.13;;;;;;;;;;4959459;28;20112;-73
2023/09/22 06:18:33;;;;;;;7.05;1.83;;;;;;;;;;4959662;28;20123;-73
2023/09/22 06:21:02;;;;;;;5.13;1.85;;;;;;;;;;4959760;28;20050;-74
2023/09/22 06:23:29;;;;;;;8.13;2.05;;;;;;;;;;4958123;28;20030;-74
2023/09/22 06:26:01;;;;;;;10.15;2.20;;;;;;;;;;4958331;28;20117;-74
2023/09/22 06:28:27;;;;;;;8.02;2.28;;;;;;;;;;4954584;28;20037;-74
2023/09/22 06:30:53;;;;;;;7.80;2.35;;;;;;;;;;4958529;28;20042;-74
2023/09/22 06:33:19;;;;;;;7.55;2.28;;;;;;;;;;4956994;28;20035;-74
2023/09/22 06:35:46;;;;;;;10.27;2.28;;;;;;;;;;4957221;28;20045;-74
2023/09/22 06:38:13;;;;;;;11.30;2.13;;;;;;;;;;4976885;28;20041;-74
2023/09/22 06:40:39;;;;;;;7.90;2.28;;;;;;;;;;4959817;28;20034;-74
2023/09/22 06:43:08;;;;;;;6.75;2.10;;;;;;;;;;4961952;28;20042;-72
2023/09/22 06:45:37;;;;;;;10.50;2.30;;;;;;;;;;4955962;28;20034;-74
2023/09/22 06:48:05;;;;;;;8.02;2.30;;;;;;;;;;4959214;28;20037;-72
2023/09/22 06:50:35;;;;;;;7.03;2.10;;;;;;;;;;4956139;28;20027;-72
2023/09/22 06:53:02;;;;;;;7.40;1.90;;;;;;;;;;4957415;28;20369;-72
2023/09/22 06:55:30;;;;;;;6.25;1.80;;;;;;;;;;4956513;28;20041;-72
2023/09/22 06:57:58;;;;;;;9.18;1.67;;;;;;;;;;4957674;28;20031;-72
2023/09/22 07:00:28;;;;;;;9.10;2.08;;;;;;;;;;4953775;28;20050;-72
2023/09/22 07:02:55;;;;;;;7.35;1.95;;;;;;;;;;4960358;28;20056;-72
2023/09/22 07:05:21;;;;;;;6.60;1.60;;;;;;;;;;4960699;28;20035;-71
2023/09/22 07:07:47;;;;;;;5.85;1.60;;;;;;;;;;4962532;28;20101;-71
2023/09/22 07:10:14;;;;;;;7.38;1.80;;;;;;;;;;4960527;28;20042;-71
2023/09/22 07:12:41;;;;;;;7.28;1.65;;;;;;;;;;4959296;28;20126;-73
2023/09/22 07:15:08;;;;;;;8.80;1.95;;;;;;;;;;4959433;28;20121;-70
2023/09/22 07:17:34;;;;;;;11.02;2.15;;;;;;;;;;4958369;28;20030;-71
2023/09/22 07:20:01;;;;;;;8.23;2.40;;;;;;;;;;4961581;28;20034;-72
2023/09/22 07:22:34;;;;;;;13.18;2.58;;;;;;;;;;4956478;28;20250;-71
2023/09/22 07:25:01;;;;;;;8.20;2.40;;;;;;;;;;4960007;28;20011;-71
2023/09/22 07:27:27;;;;;;;8.73;2.50;;;;;;;;;;4957885;28;20318;-71
2023/09/22 07:29:53;;;;;;;9.77;2.33;;;;;;;;;;4958330;28;20041;-71
2023/09/22 07:32:20;;;;;;;10.13;2.58;;;;;;;;;;4961970;28;20030;-73
2023/09/22 07:34:48;;;;;;;16.95;3.47;;;;;;;;;;4960267;28;20012;-74
2023/09/22 07:37:15;;;;;;;10.10;3.17;;;;;;;;;;4961355;28;20104;-72
2023/09/22 07:39:41;;;;;;;12.30;3.47;;;;;;;;;;4955903;28;21097;-72
2023/09/22 07:42:09;;;;;;;11.38;3.13;;;;;;;;;;4958495;28;20042;-71
2023/09/22 07:44:38;;;;;;;13.50;3.22;;;;;;;;;;4961637;28;20037;-72
2023/09/22 07:47:10;;;;;;;13.23;3.38;;;;;;;;;;4958680;28;20039;-71
2023/09/22 07:49:37;;;;;;;11.30;3.22;;;;;;;;;;4956991;28;20413;-71
2023/09/22 07:52:04;;;;;;;11.02;3.03;;;;;;;;;;4957989;28;20350;-73
2023/09/22 07:54:31;;;;;;;16.98;3.33;;;;;;;;;;4957596;28;20441;-73
2023/09/22 07:56:58;;;;;;;9.75;3.10;;;;;;;;;;4963282;28;20956;-71
2023/09/22 07:59:24;;;;;;;10.70;3.05;;;;;;;;;;4961670;28;20030;-71
2023/09/22 08:01:50;;;;;;;10.13;2.63;;;;;;;;;;4960992;28;20030;-71
2023/09/22 08:04:16;;;;;;;11.65;3.08;;;;;;;;;;4958883;28;20289;-72
2023/09/22 08:06:43;;;;;;;12.23;2.88;;;;;;;;;;4961107;28;21125;-72
2023/09/22 08:09:12;;;;;;;12.00;3.10;;;;;;;;;;4963049;28;21846;-73
2023/09/22 08:11:39;;;;;;;11.98;3.30;;;;;;;;;;4962381;28;20042;-72
2023/09/22 08:14:05;;;;;;;9.05;2.50;;;;;;;;;;4966593;28;20067;-72
2023/09/22 08:16:31;;;;;;;10.73;2.90;;;;;;;;;;4962014;28;20030;-73
2023/09/22 08:18:58;;;;;;;10.05;3.03;;;;;;;;;;4965501;28;20447;-73
2023/09/22 08:21:25;;;;;;;10.35;2.80;;;;;;;;;;4957200;28;20457;-73
2023/09/22 08:23:51;;;;;;;9.32;2.70;;;;;;;;;;4963393;28;20046;-73
2023/09/22 08:26:18;;;;;;;11.90;3.53;;;;;;;;;;4959181;28;20049;-73
2023/09/22 08:28:47;;;;;;;11.98;3.83;;;;;;;;;;4959611;28;20475;-73
2023/09/22 08:31:14;;;;;;;13.57;3.08;;;;;;;;;;4956979;28;20069;-73
2023/09/22 08:33:41;;;;;;;13.00;2.70;;;;;;;;;;4963710;28;20038;-73
2023/09/22 08:36:08;;;;;;;9.55;2.92;;;;;;;;;;4962021;28;20042;-73
2023/09/22 08:38:34;;;;;;;10.60;2.88;;;;;;;;;;4956952;28;20026;-73
2023/09/22 08:41:03;;;;;;;10.60;2.83;;;;;;;;;;4965194;28;20034;-74
2023/09/22 08:43:30;;;;;;;10.30;3.00;;;;;;;;;;4960911;28;20027;-73
2023/09/22 08:45:56;;;;;;;10.93;2.80;;;;;;;;;;4962595;28;20065;-71
2023/09/22 08:48:24;;;;;;;10.52;3.17;;;;;;;;;;4958020;28;20405;-74
2023/09/22 08:50:50;;;;;;;10.55;2.70;;;;;;;;;;4962085;28;20037;-74
2023/09/22 08:53:17;;;;;;;10.30;3.20;;;;;;;;;;4962970;28;20228;-76
2023/09/22 08:55:43;;;;;;;9.27;2.40;;;;;;;;;;4957953;28;20034;-76
2023/09/22 08:58:09;;;;;;;11.57;3.10;;;;;;;;;;4958588;28;20460;-75
2023/09/22 09:00:35;;;;;;;8.90;2.60;;;;;;;;;;4962340;28;20459;-75
2023/09/22 09:03:09;;;;;;;8.82;2.40;;;;;;;;;;4964111;28;20026;-75
2023/09/22 09:05:36;;;;;;;9.13;3.20;;;;;;;;;;4956708;28;20113;-75
2023/09/22 09:08:11;;;;;;;9.38;2.67;;;;;;;;;;4964695;28;20653;-75
2023/09/22 09:10:38;;;;;;;8.32;3.42;;;;;;;;;;4961198;28;20505;-75
2023/09/22 09:13:06;;;;;;;9.50;3.00;;;;;;;;;;4963697;28;20678;-75
2023/09/22 09:15:42;;;;;;;8.68;2.92;;;;;;;;;;4958143;28;20121;-75
2023/09/22 09:18:11;;;;;;;7.28;2.55;;;;;;;;;;4960566;28;20117;-75
2023/09/22 09:20:40;;;;;;;9.35;3.08;;;;;;;;;;4958576;28;20225;-75
2023/09/22 09:23:36;;;;;;;8.55;2.60;;;;;;;;;;4965753;28;20026;-75
2023/09/22 09:26:02;;;;;;;6.80;2.17;;;;;;;;;;4954029;28;20049;-76
2023/09/22 09:28:29;;;;;;;7.50;1.98;;;;;;;;;;4958915;28;20551;-76
2023/09/22 09:30:59;;;;;;;7.82;2.25;;;;;;;;;;4964500;28;20065;-75
2023/09/22 09:33:32;;;;;;;7.75;1.90;;;;;;;;;;4955593;28;20045;-75
2023/09/22 09:35:59;;;;;;;5.75;1.70;;;;;;;;;;4961179;28;20030;-75
2023/09/22 09:38:29;;;;;;;6.55;1.85;;;;;;;;;;4958940;28;20038;-75
2023/09/22 09:40:58;;;;;;;7.85;1.95;;;;;;;;;;4960431;28;20029;-75
2023/09/22 09:43:25;;;;;;;8.02;2.00;;;;;;;;;;4957610;28;20355;-75
2023/09/22 09:45:56;;;;;;;7.43;2.22;;;;;;;;;;4961016;28;20041;-77
2023/09/22 09:48:24;;;;;;;7.13;1.77;;;;;;;;;;4958660;28;20034;-79
2023/09/22 09:50:52;;;;;;;5.90;1.40;;;;;;;;;;4963429;28;20037;-77
2023/09/22 09:53:27;;;;;;;5.15;1.50;;;;;;;;;;4964871;28;20621;-76
2023/09/22 09:55:59;;;;;;;6.93;1.45;;;;;;;;;;4965596;28;20583;-77
2023/09/22 09:58:30;;;;;;;6.32;1.65;;;;;;;;;;4960552;28;20065;-75
2023/09/22 10:00:57;;;;;;;5.40;1.60;;;;;;;;;;4962822;28;20034;-78
2023/09/22 10:03:24;;;;;;;6.25;1.50;;;;;;;;;;4960830;28;20022;-77
2023/09/22 10:05:51;;;;;;;7.18;1.38;;;;;;;;;;4958294;28;20116;-77
2023/09/22 10:08:20;;;;;;;8.23;1.52;;;;;;;;;;4960793;28;20026;-77
2023/09/22 10:10:47;;;;;;;5.28;1.38;;;;;;;;;;4958111;28;20125;-77
2023/09/22 10:13:14;;;;;;;4.93;1.40;;;;;;;;;;4962798;28;20046;-77
2023/09/22 10:15:53;;;;;;;6.38;1.40;;;;;;;;;;4960403;28;20041;-78
2023/09/22 10:18:20;;;;;;;5.07;1.30;;;;;;;;;;4961281;28;20471;-77
2023/09/22 10:20:47;;;;;;;5.95;1.35;;;;;;;;;;4961755;28;20038;-77
2023/09/22 10:23:25;;;;;;;5.13;1.27;;;;;;;;;;4964622;28;20022;-77
2023/09/22 10:26:09;;;;;;;4.40;1.02;;;;;;;;;;4961297;28;20109;-77
2023/09/22 10:28:35;;;;;;;5.30;1.20;;;;;;;;;;4957980;28;20594;-78
2023/09/22 10:31:03;;;;;;;8.13;1.60;;;;;;;;;;4962585;28;20030;-76
2023/09/22 10:33:32;;;;;;;3.70;1.20;;;;;;;;;;4957240;28;20038;-76
2023/09/22 10:36:04;;;;;;;5.95;1.30;;;;;;;;;;4965380;28;20070;-76
2023/09/22 10:38:30;;;;;;;5.60;1.40;;;;;;;;;;4958022;28;20486;-76
2023/09/22 10:41:03;;;;;;;5.65;1.30;;;;;;;;;;4975691;28;20030;-77
2023/09/22 10:43:30;;;;;;;4.85;1.10;;;;;;;;;;4959322;28;20384;-77
2023/09/22 10:45:56;;;;;;;6.18;1.20;;;;;;;;;;4962225;28;20835;-76
2023/09/22 10:48:22;;;;;;;3.50;1.00;;;;;;;;;;4958571;28;20447;-77
2023/09/22 10:50:49;;;;;;;5.75;1.10;;;;;;;;;;4963239;28;20030;-76
2023/09/22 10:53:15;;;;;;;3.33;0.90;;;;;;;;;;4958862;28;20356;-78
2023/09/22 10:55:43;;;;;;;4.25;1.10;;;;;;;;;;4959715;28;20030;-78
2023/09/22 10:58:10;;;;;;;5.50;1.40;;;;;;;;;;4959649;28;20038;-78
2023/09/22 11:00:43;;;;;;;4.22;1.25;;;;;;;;;;4956022;28;20042;-78
2023/09/22 11:03:14;;;;;;;5.88;1.20;;;;;;;;;;4959007;28;20134;-78
2023/09/22 11:05:44;;;;;;;4.40;1.05;;;;;;;;;;4951074;28;20368;-78
2023/09/22 11:08:19;;;;;;;5.72;1.40;;;;;;;;;;4956869;28;20129;-78
2023/09/22 11:10:46;;;;;;;;;;;;;;;;;;4961647;28;20093;-78
2023/09/22 11:13:14;;;;;;;9.80;1.70;;;;;;;;;;4962971;28;20331;-76
2023/09/22 11:16:09;;;;;;;13.30;2.10;;;;;;;;;;4962528;28;20472;-77
2023/09/22 11:18:35;;;;;;;7.07;1.40;;;;;;;;;;4948878;28;20049;-77
2023/09/22 11:21:05;;;;;;;9.57;2.00;;;;;;;;;;4958084;28;20034;-77
2023/09/22 11:23:31;;;;;;;7.65;2.03;;;;;;;;;;4951460;28;20034;-69
2023/09/22 11:25:58;;;;;;;7.68;1.83;;;;;;;;;;4951150;28;20034;-69
2023/09/22 11:28:24;;;;;;;8.40;1.50;;;;;;;;;;4954838;28;20031;-70
2023/09/22 11:30:51;;;;;;;6.88;1.45;;;;;;;;;;4959083;28;20445;-69
2023/09/22 11:33:17;;;;;;;6.80;1.40;;;;;;;;;;4955214;28;20257;-69
2023/09/22 11:35:43;;;;;;;11.98;1.60;;;;;;;;;;4950126;28;21083;-69
2023/09/22 11:38:27;;;;;;;13.05;1.80;;;;;;;;;;4954181;28;20414;-69
2023/09/22 11:41:13;;;;;;;3.10;0.90;;;;;;;;;;4955634;28;20380;-69
2023/09/22 11:43:41;;;;;;;6.43;1.52;;;;;;;;;;4957378;28;20325;-69
2023/09/22 11:46:10;;;;;;;6.88;1.35;;;;;;;;;;4958611;28;20563;-69
2023/09/22 11:48:53;;;;;;;5.68;1.33;;;;;;;;;;4954658;28;20026;-68
2023/09/22 11:51:20;;;;;;;5.68;1.30;;;;;;;;;;4958371;28;20065;-69
2023/09/22 11:53:46;;;;;;;6.75;1.90;;;;;;;;;;4956140;28;20034;-69
2023/09/22 11:56:12;;;;;;;7.53;1.67;;;;;;;;;;4958335;28;20031;-69
2023/09/22 11:58:38;;;;;;;5.80;1.65;;;;;;;;;;4953400;28;20037;-69
2023/09/22 12:01:05;;;;;;;4.78;1.27;;;;;;;;;;4962276;28;20957;-69
2023/09/22 12:03:35;;;;;;;6.30;1.50;;;;;;;;;;4956232;28;20345;-70
2023/09/22 12:06:02;;;;;;;5.57;1.50;;;;;;;;;;4957712;28;20516;-69
2023/09/22 12:08:29;;;;;;;5.15;1.40;;;;;;;;;;4954589;28;20034;-70
2023/09/22 12:10:55;;;;;;;8.05;1.60;;;;;;;;;;4962215;28;20440;-69
2023/09/22 12:13:22;;;;;;;6.28;1.83;;;;;;;;;;4958480;28;20433;-70
2023/09/22 12:15:48;;;;;;;6.53;1.33;;;;;;;;;;4960043;28;20197;-69
2023/09/22 12:18:14;;;;;;;5.78;1.67;;;;;;;;;;4961432;28;20096;-69
2023/09/22 12:20:40;;;;;;;5.80;1.52;;;;;;;;;;4956145;28;20409;-69
2023/09/22 12:23:06;;;;;;;5.03;1.20;;;;;;;;;;4960082;28;20153;-70
2023/09/22 12:25:33;;;;;;;6.03;1.30;;;;;;;;;;4953466;28;20583;-69
2023/09/22 12:27:59;;;;;;;5.28;1.17;;;;;;;;;;4958102;28;20109;-69
2023/09/22 12:30:25;;;;;;;4.90;1.30;;;;;;;;;;4951311;28;20366;-69
2023/09/22 12:32:51;;;;;;;5.65;1.10;;;;;;;;;;4956437;28;20038;-69
2023/09/22 12:35:17;;;;;;;3.95;1.08;;;;;;;;;;4955119;28;20341;-69
2023/09/22 12:37:43;;;;;;;4.50;0.98;;;;;;;;;;4956340;28;20042;-69
2023/09/22 12:40:09;;;;;;;4.07;1.17;;;;;;;;;;4957328;28;20548;-69
2023/09/22 12:42:37;;;;;;;7.00;1.60;;;;;;;;;;4951740;28;20554;-70
2023/09/22 12:45:04;;;;;;;5.88;1.50;;;;;;;;;;4958386;28;20377;-69
2023/09/22 12:47:30;;;;;;;4.88;1.50;;;;;;;;;;4957581;28;20109;-71
2023/09/22 12:49:56;;;;;;;4.07;1.10;;;;;;;;;;4959869;28;20178;-70
2023/09/22 12:52:22;;;;;;;5.80;1.58;;;;;;;;;;4956881;28;20169;-70
2023/09/22 12:54:49;;;;;;;6.80;1.60;;;;;;;;;;4955363;28;20037;-70
2023/09/22 12:57:15;;;;;;;4.38;1.40;;;;;;;;;;4954064;28;20030;-70
2023/09/22 12:59:41;;;;;;;7.45;1.90;;;;;;;;;;4955335;28;20061;-69
2023/09/22 13:02:07;;;;;;;6.57;1.73;;;;;;;;;;4958272;28;20030;-70
2023/09/22 13:04:34;;;;;;;4.22;1.45;;;;;;;;;;4958336;28;20437;-69
2023/09/22 13:07:00;;;;;;;5.60;1.67;;;;;;;;;;4958064;28;20053;-69
2023/09/22 13:09:27;;;;;;;7.20;1.70;;;;;;;;;;4954554;28;20038;-69
2023/09/22 13:11:53;;;;;;;6.22;1.55;;;;;;;;;;4958418;28;20630;-69
2023/09/22 13:14:20;;;;;;;6.90;1.58;;;;;;;;;;4958190;28;20141;-69
2023/09/22 13:16:46;;;;;;;5.13;1.40;;;;;;;;;;4954788;28;20033;-70
2023/09/22 13:19:12;;;;;;;4.88;1.40;;;;;;;;;;4956007;28;20476;-70
2023/09/22 13:21:39;;;;;;;7.10;1.60;;;;;;;;;;4954977;28;20035;-70
2023/09/22 13:24:06;;;;;;;6.20;1.70;;;;;;;;;;4957046;28;20038;-70
2023/09/22 13:26:32;;;;;;;4.97;1.45;;;;;;;;;;4953751;28;20730;-69
2023/09/22 13:28:59;;;;;;;6.07;1.50;;;;;;;;;;4955925;28;20327;-69
2023/09/22 13:31:28;;;;;;;4.47;1.23;;;;;;;;;;4951989;28;20038;-69
2023/09/22 13:33:54;;;;;;;6.22;1.58;;;;;;;;;;4957320;28;20061;-71
2023/09/22 13:36:21;;;;;;;6.38;1.48;;;;;;;;;;4956350;28;20113;-68
2023/09/22 13:38:47;;;;;;;6.93;1.73;;;;;;;;;;4960691;28;20030;-68
2023/09/22 13:41:14;;;;;;;5.82;1.40;;;;;;;;;;4953203;28;20629;-68
2023/09/22 13:43:42;;;;;;;5.15;1.42;;;;;;;;;;4954302;28;20037;-71
2023/09/22 13:46:15;;;;;;;8.57;1.60;;;;;;;;;;4953388;28;20093;-68
2023/09/22 13:48:42;;;;;;;6.70;1.40;;;;;;;;;;4952008;28;20145;-69
2023/09/22 13:51:08;;;;;;;6.07;1.40;;;;;;;;;;4953924;28;20509;-69
2023/09/22 13:53:41;;;;;;;5.60;1.30;;;;;;;;;;4955421;28;20295;-70
2023/09/22 13:56:19;;;;;;;6.03;1.33;;;;;;;;;;4955615;28;20126;-69
2023/09/22 13:58:50;;;;;;;4.28;1.40;;;;;;;;;;4953812;28;20359;-69
2023/09/22 14:01:17;;;;;;;7.22;1.40;;;;;;;;;;4955449;28;20030;-69
2023/09/22 14:03:43;;;;;;;3.35;1.05;;;;;;;;;;4952205;28;20034;-69
2023/09/22 14:06:15;;;;;;;8.18;1.73;;;;;;;;;;4954800;28;20647;-70
2023/09/22 14:08:42;;;;;;;5.60;1.40;;;;;;;;;;4964934;28;20549;-70
2023/09/22 14:11:09;;;;;;;4.38;1.30;;;;;;;;;;4955304;28;20172;-70
2023/09/22 14:13:36;;;;;;;4.70;1.20;;;;;;;;;;4951561;28;20125;-70
2023/09/22 14:16:03;;;;;;;5.60;1.27;;;;;;;;;;4952462;28;20396;-69
2023/09/22 14:18:29;;;;;;;5.88;1.42;;;;;;;;;;4955546;28;20284;-69
2023/09/22 14:20:55;;;;;;;4.72;1.33;;;;;;;;;;4954315;28;20061;-69
2023/09/22 14:23:22;;;;;;;5.57;1.40;;;;;;;;;;4957809;28;20169;-69
2023/09/22 14:25:48;;;;;;;5.93;1.40;;;;;;;;;;4956966;28;20034;-69
2023/09/22 14:28:15;;;;;;;7.28;1.40;;;;;;;;;;4952209;28;20034;-69
2023/09/22 14:30:42;;;;;;;6.53;1.30;;;;;;;;;;4949259;28;20034;-69
2023/09/22 14:33:08;;;;;;;4.20;1.00;;;;;;;;;;4956835;28;20281;-68
2023/09/22 14:35:34;;;;;;;4.97;1.23;;;;;;;;;;4952229;28;20116;-68
2023/09/22 14:38:00;;;;;;;5.22;1.30;;;;;;;;;;4956763;28;20038;-68
2023/09/22 14:40:27;;;;;;;4.63;1.25;;;;;;;;;;4953770;28;20037;-71
2023/09/22 14:42:55;;;;;;;5.03;1.20;;;;;;;;;;4956788;28;20651;-69